Pagrindinis puslapis
METAR-TAF:

METAR-TAF

Oro uostai :

Passo Fundo, Pietų Rio Grandė, Brazilija

platuma: 28-15S, ilguma: 052-24W, Aukštis: 684 m

Dabartinis oras

Ataskaita buvo paskelbta 2 valandos ir 22 minutes, ne 16:00 UTC
Vėjas 17 kt iš Šiaurės/Šiaurės Rytų
Temperatūra 28°C
Drėgmė 51%
Slėgis 1014 hPa
Matomumas 10 km arba daugiau
Išsisklaidę debesys ne aukštis 3000 ft

METAR: SBPF 171600Z 03017KT 9999 SCT030 28/17 Q1014

Laikas: 15:22 (18:22 UTC)


TAF: trūkstamas

Orai ataskaitas ir orų prognozės (METAR, TAF).

turimą stotys yra geltonos ir raudonos taškus žemėlapyje.

Perkelti pele per norėdami pamatyti stoties vardą.

Tada spustelėkite, norėdami matyti oro stebėjimo ir prognozės.

Norėdami pakeisti žemėlapį: spustelėkite ant žalios mygtukų su juodo kryžiaus žemyn,; žalią mygtuką su brūkšneliu, jei norite nutolinti; arba žalių rodyklių gretimoms žemėlapius.


METAR-TAF: